Time;durP1;ratioP1;P1;durP2;ratioP2;P2;SDS_P1;SDS_P2;PMS_P1;PMS_P2;Temp;Humidity;BMP_temperature;BMP_pressure;BME280_temperature;BME280_humidity;BME280_pressure;Samples;Min_cycle;Max_cycle;Signal;HPM_P1;HPM_P2
2024/01/04 00:02:14;;;;;;;4.32;0.20;;;6.30;99.90;;;;;;5075166;28;20171;-64
2024/01/04 00:04:40;;;;;;;3.05;0.47;;;6.20;99.90;;;;;;5074745;28;20039;-64
2024/01/04 00:07:06;;;;;;;2.40;0.10;;;6.20;99.90;;;;;;5091215;28;20563;-65
2024/01/04 00:09:32;;;;;;;3.50;0.10;;;6.20;99.90;;;;;;5057061;28;20043;-66
2024/01/04 00:11:57;;;;;;;2.35;0.20;;;6.20;99.90;;;;;;5090860;28;20571;-64
2024/01/04 00:14:23;;;;;;;3.30;0.20;;;6.20;99.90;;;;;;5057300;28;20038;-65
2024/01/04 00:16:49;;;;;;;4.00;0.20;;;6.30;99.90;;;;;;5091139;28;20062;-65
2024/01/04 00:19:15;;;;;;;4.03;0.20;;;6.10;99.90;;;;;;5073845;28;20432;-64
2024/01/04 00:21:40;;;;;;;3.97;0.25;;;6.20;99.90;;;;;;5074576;28;20047;-65
2024/01/04 00:24:09;;;;;;;2.92;0.20;;;6.00;99.90;;;;;;5090811;28;20043;-64
2024/01/04 00:26:34;;;;;;;2.38;0.10;;;6.10;99.90;;;;;;5074442;28;20058;-68
2024/01/04 00:29:00;;;;;;;0.90;0.10;;;6.20;99.90;;;;;;5077675;28;20040;-65
2024/01/04 00:31:26;;;;;;;2.42;0.10;;;6.20;99.90;;;;;;5077963;28;20062;-65
2024/01/04 00:33:52;;;;;;;1.23;0.10;;;6.10;99.90;;;;;;5095428;28;20036;-66
2024/01/04 00:36:18;;;;;;;0.98;0.10;;;6.10;99.90;;;;;;5078251;28;20035;-65
2024/01/04 00:38:44;;;;;;;1.80;0.10;;;6.10;99.90;;;;;;5077945;28;20505;-65
2024/01/04 00:41:10;;;;;;;2.25;0.10;;;6.10;99.90;;;;;;5094930;28;20655;-65
2024/01/04 00:43:39;;;;;;;2.78;0.20;;;6.10;99.90;;;;;;5077924;28;20070;-65
2024/01/04 00:46:05;;;;;;;1.73;0.10;;;6.10;99.90;;;;;;5083049;28;20039;-65
2024/01/04 00:48:31;;;;;;;3.70;0.10;;;6.10;99.90;;;;;;5078443;28;20524;-64
2024/01/04 00:50:58;;;;;;;3.65;0.17;;;6.00;99.90;;;;;;5076898;28;20048;-64
2024/01/04 00:53:23;;;;;;;4.40;0.28;;;5.90;99.90;;;;;;5077969;28;20417;-65
2024/01/04 00:55:49;;;;;;;3.22;0.20;;;6.10;99.90;;;;;;5077568;28;20040;-65
2024/01/04 00:58:15;;;;;;;2.55;0.22;;;6.00;99.90;;;;;;5082534;28;20659;-64
2024/01/04 01:00:41;;;;;;;3.42;0.30;;;6.00;99.90;;;;;;5076971;28;20035;-64
2024/01/04 01:03:06;;;;;;;2.92;0.17;;;6.00;99.90;;;;;;5061390;28;20046;-65
2024/01/04 01:05:32;;;;;;;1.83;0.20;;;6.10;99.90;;;;;;5094606;28;20102;-64
2024/01/04 01:08:01;;;;;;;4.28;0.20;;;6.00;99.90;;;;;;5094217;28;20235;-64
2024/01/04 01:10:28;;;;;;;1.48;0.10;;;6.00;99.90;;;;;;5094128;28;20043;-64
2024/01/04 01:12:54;;;;;;;6.25;0.30;;;6.00;99.90;;;;;;5060512;28;20032;-64
2024/01/04 01:15:20;;;;;;;2.90;0.22;;;6.00;99.90;;;;;;5094082;28;20096;-64
2024/01/04 01:17:46;;;;;;;2.75;0.20;;;5.90;99.90;;;;;;5095342;28;20043;-64
2024/01/04 01:20:11;;;;;;;5.55;0.20;;;5.80;99.90;;;;;;5094571;28;20040;-65
2024/01/04 01:22:37;;;;;;;3.70;0.17;;;5.70;99.90;;;;;;5077795;28;20039;-64
2024/01/04 01:25:03;;;;;;;3.33;0.10;;;5.70;99.90;;;;;;5060076;28;20737;-66
2024/01/04 01:27:29;;;;;;;5.43;0.65;;;5.70;99.90;;;;;;5093971;27;20421;-64
2024/01/04 01:29:55;;;;;;;3.78;0.25;;;5.60;99.90;;;;;;5077129;28;20043;-63
2024/01/04 01:32:21;;;;;;;1.63;0.10;;;5.60;99.90;;;;;;5094616;28;20046;-66
2024/01/04 01:34:47;;;;;;;1.50;0.10;;;5.60;99.90;;;;;;5076683;28;20250;-65
2024/01/04 01:37:12;;;;;;;1.98;0.10;;;5.60;99.90;;;;;;5092353;28;20074;-65
2024/01/04 01:39:39;;;;;;;1.80;0.10;;;5.60;99.90;;;;;;5076293;28;20035;-64
2024/01/04 01:42:05;;;;;;;1.73;0.13;;;5.50;99.90;;;;;;5059623;28;20071;-64
2024/01/04 01:44:31;;;;;;;2.95;0.20;;;5.50;99.90;;;;;;5094118;28;20154;-64
2024/01/04 01:46:57;;;;;;;2.08;0.20;;;5.50;99.90;;;;;;5093439;28;20582;-65
2024/01/04 01:49:22;;;;;;;2.67;0.17;;;5.50;99.90;;;;;;5094005;28;20190;-64
2024/01/04 01:51:48;;;;;;;2.60;0.15;;;5.50;99.90;;;;;;5058916;28;20051;-64
2024/01/04 01:54:14;;;;;;;2.47;0.20;;;5.40;99.90;;;;;;5075586;28;20284;-64
2024/01/04 01:56:40;;;;;;;3.35;0.30;;;5.20;99.90;;;;;;5092903;28;20322;-64
2024/01/04 01:59:07;;;;;;;1.60;0.20;;;5.40;99.90;;;;;;5092581;28;20044;-64
2024/01/04 02:01:33;;;;;;;3.47;0.32;;;5.20;99.90;;;;;;5109751;27;20043;-64
2024/01/04 02:03:59;;;;;;;3.40;0.20;;;5.30;99.90;;;;;;5076733;28;20430;-65
2024/01/04 02:06:24;;;;;;;1.70;0.13;;;5.40;99.90;;;;;;5075291;28;20043;-64
2024/01/04 02:08:50;;;;;;;5.03;0.20;;;5.10;99.90;;;;;;5058864;28;20044;-64
2024/01/04 02:11:16;;;;;;;5.10;0.20;;;5.00;99.90;;;;;;5091242;28;20316;-64
2024/01/04 02:13:43;;;;;;;1.58;0.10;;;5.10;99.90;;;;;;5074585;28;20039;-64
2024/01/04 02:16:08;;;;;;;2.05;0.20;;;5.00;99.90;;;;;;5075517;28;20043;-64
2024/01/04 02:18:34;;;;;;;5.78;0.20;;;5.10;99.90;;;;;;5074924;28;20054;-64
2024/01/04 02:21:01;;;;;;;4.88;0.20;;;4.90;99.90;;;;;;5058493;28;20494;-64
2024/01/04 02:23:27;;;;;;;3.05;0.20;;;5.10;99.90;;;;;;5091688;28;20039;-65
2024/01/04 02:25:53;;;;;;;7.35;0.30;;;5.00;99.90;;;;;;5074975;28;20081;-64
2024/01/04 02:28:19;;;;;;;3.72;0.20;;;4.90;99.90;;;;;;5091313;28;20142;-65
2024/01/04 02:30:45;;;;;;;1.80;0.30;;;4.80;99.90;;;;;;5074565;28;20043;-64
2024/01/04 02:33:11;;;;;;;4.68;0.20;;;4.70;99.90;;;;;;5074916;28;20250;-64
2024/01/04 02:35:37;;;;;;;4.50;0.52;;;4.80;99.90;;;;;;5092393;28;20516;-65
2024/01/04 02:38:03;;;;;;;1.73;0.10;;;4.90;99.90;;;;;;5074387;28;20214;-64
2024/01/04 02:40:30;;;;;;;3.33;0.10;;;4.90;99.90;;;;;;5091544;28;20065;-66
2024/01/04 02:42:56;;;;;;;1.88;0.10;;;4.80;99.90;;;;;;5091315;28;20070;-64
2024/01/04 02:45:22;;;;;;;2.08;0.20;;;4.80;99.90;;;;;;5079370;27;20501;-64
2024/01/04 02:47:47;;;;;;;6.85;0.20;;;4.90;99.90;;;;;;5091135;28;20039;-64
2024/01/04 02:50:14;;;;;;;4.43;0.20;;;4.80;99.90;;;;;;5073700;28;20097;-64
2024/01/04 02:52:39;;;;;;;3.17;0.20;;;4.80;99.90;;;;;;5073326;28;20059;-64
2024/01/04 02:55:05;;;;;;;2.10;0.10;;;4.80;99.90;;;;;;5074190;28;20036;-64
2024/01/04 02:57:31;;;;;;;2.10;0.10;;;4.90;99.90;;;;;;5091016;28;20127;-64
2024/01/04 02:59:57;;;;;;;1.17;0.10;;;5.10;99.90;;;;;;5057259;28;20054;-64
2024/01/04 03:02:23;;;;;;;4.32;0.10;;;4.80;99.90;;;;;;5074817;28;20035;-64
2024/01/04 03:04:49;;;;;;;1.60;0.05;;;4.90;99.90;;;;;;5091740;28;20042;-64
2024/01/04 03:07:14;;;;;;;2.80;0.10;;;4.90;99.90;;;;;;5073720;28;20090;-64
2024/01/04 03:09:40;;;;;;;2.33;0.10;;;5.00;99.90;;;;;;5074060;28;20092;-64
2024/01/04 03:12:06;;;;;;;1.38;0.10;;;4.70;99.90;;;;;;5073801;28;20097;-64
2024/01/04 03:14:32;;;;;;;3.42;0.10;;;4.70;99.90;;;;;;5091368;28;20398;-64
2024/01/04 03:16:58;;;;;;;4.53;0.20;;;4.60;99.90;;;;;;5090478;28;20032;-64
2024/01/04 03:19:23;;;;;;;1.98;0.10;;;4.90;99.90;;;;;;5056373;28;20039;-64
2024/01/04 03:21:49;;;;;;;2.17;0.20;;;4.80;99.90;;;;;;5073977;28;20044;-63
2024/01/04 03:24:15;;;;;;;2.75;0.20;;;4.80;99.90;;;;;;5090561;28;20453;-64
2024/01/04 03:26:40;;;;;;;2.63;0.20;;;4.70;99.90;;;;;;5074090;28;20319;-63
2024/01/04 03:29:06;;;;;;;2.17;0.20;;;4.60;99.90;;;;;;5073629;28;20096;-64
2024/01/04 03:31:32;;;;;;;6.25;0.20;;;4.70;99.90;;;;;;5090725;28;20137;-64
2024/01/04 03:33:58;;;;;;;4.90;0.30;;;4.90;99.90;;;;;;5074102;28;20425;-64
2024/01/04 03:36:24;;;;;;;2.53;0.30;;;4.90;99.90;;;;;;5073476;28;20485;-64
2024/01/04 03:38:49;;;;;;;2.95;0.15;;;4.70;99.90;;;;;;5073173;28;20046;-64
2024/01/04 03:41:15;;;;;;;1.30;0.10;;;4.70;99.90;;;;;;5058071;28;20475;-64
2024/01/04 03:43:41;;;;;;;3.13;0.20;;;4.70;99.90;;;;;;5078246;28;20349;-64
2024/01/04 03:46:09;;;;;;;4.05;0.20;;;4.80;99.90;;;;;;5090703;28;20871;-64
2024/01/04 03:48:35;;;;;;;2.25;0.20;;;4.50;99.90;;;;;;5090559;28;20041;-63
2024/01/04 03:51:01;;;;;;;2.75;0.20;;;4.70;99.90;;;;;;5072613;28;20035;-64
2024/01/04 03:53:27;;;;;;;1.48;0.20;;;4.60;99.90;;;;;;5073261;28;20123;-64
2024/01/04 03:55:52;;;;;;;3.47;0.30;;;4.30;99.90;;;;;;5090580;28;20454;-64
2024/01/04 03:58:18;;;;;;;2.30;0.25;;;4.50;99.90;;;;;;5090126;28;20047;-64
2024/01/04 04:00:44;;;;;;;2.22;0.20;;;4.60;99.90;;;;;;5072992;28;20078;-64
2024/01/04 04:03:10;;;;;;;3.33;0.10;;;4.50;99.90;;;;;;5089735;28;20410;-63
2024/01/04 04:05:36;;;;;;;0.88;0.10;;;4.50;99.90;;;;;;5090546;28;20059;-63
2024/01/04 04:08:01;;;;;;;4.47;0.20;;;4.60;99.90;;;;;;5090307;28;20040;-64
2024/01/04 04:10:27;;;;;;;5.63;0.30;;;4.50;99.90;;;;;;5090117;28;20044;-64
2024/01/04 04:12:53;;;;;;;5.28;0.45;;;4.60;99.90;;;;;;5089721;28;20518;-64
2024/01/04 04:15:21;;;;;;;6.85;0.30;;;4.70;99.90;;;;;;5090262;28;20851;-64
2024/01/04 04:17:47;;;;;;;3.72;0.40;;;4.50;99.90;;;;;;5073163;28;20047;-63
2024/01/04 04:20:13;;;;;;;5.05;0.13;;;4.80;99.90;;;;;;5073258;28;20305;-63
2024/01/04 04:22:38;;;;;;;1.90;0.10;;;4.80;99.90;;;;;;5089089;28;20043;-64
2024/01/04 04:25:04;;;;;;;3.55;0.20;;;4.60;99.90;;;;;;5089906;28;20674;-64
2024/01/04 04:27:30;;;;;;;2.67;0.20;;;4.50;99.90;;;;;;5089542;28;20129;-64
2024/01/04 04:29:56;;;;;;;2.58;0.10;;;4.70;99.90;;;;;;5078731;28;20648;-64
2024/01/04 04:32:21;;;;;;;2.33;0.10;;;4.70;99.90;;;;;;5090232;28;20043;-64
2024/01/04 04:34:47;;;;;;;2.17;0.10;;;4.70;99.90;;;;;;5089908;28;20043;-64
2024/01/04 04:37:14;;;;;;;7.03;0.30;;;4.50;99.90;;;;;;5072431;28;20046;-62
2024/01/04 04:39:40;;;;;;;1.60;0.20;;;4.40;99.90;;;;;;5072574;28;20039;-63
2024/01/04 04:42:06;;;;;;;1.27;0.10;;;4.50;99.90;;;;;;5089500;28;20555;-63
2024/01/04 04:44:32;;;;;;;1.38;0.13;;;4.30;99.90;;;;;;5091980;28;20039;-64
2024/01/04 04:46:57;;;;;;;5.30;0.20;;;4.30;99.90;;;;;;5090023;28;20047;-63
2024/01/04 04:49:23;;;;;;;3.22;0.20;;;4.40;99.90;;;;;;5089824;28;20130;-64
2024/01/04 04:51:49;;;;;;;4.78;0.20;;;4.40;99.90;;;;;;5072838;28;20052;-63
2024/01/04 04:54:18;;;;;;;3.10;0.30;;;4.60;99.90;;;;;;5072300;28;20043;-65
2024/01/04 04:56:43;;;;;;;4.82;0.20;;;4.30;99.90;;;;;;5073248;28;20031;-64
2024/01/04 04:59:09;;;;;;;3.35;0.10;;;4.60;99.90;;;;;;5089673;28;20104;-64
2024/01/04 05:01:35;;;;;;;2.00;0.10;;;4.30;99.90;;;;;;5089612;28;20100;-64
2024/01/04 05:04:01;;;;;;;1.20;0.10;;;4.30;99.90;;;;;;5073006;28;20031;-64
2024/01/04 05:06:27;;;;;;;2.60;0.10;;;4.40;99.90;;;;;;5072230;28;20043;-63
2024/01/04 05:08:53;;;;;;;1.15;0.20;;;4.40;99.90;;;;;;5088754;28;20506;-64
2024/01/04 05:11:19;;;;;;;0.85;0.05;;;4.50;99.90;;;;;;5072175;28;20551;-63
2024/01/04 05:13:44;;;;;;;1.40;0.10;;;4.20;99.90;;;;;;5090931;28;20040;-64
2024/01/04 05:16:10;;;;;;;2.03;0.10;;;4.30;99.90;;;;;;5094489;28;20108;-64
2024/01/04 05:18:36;;;;;;;0.82;0.10;;;4.30;99.90;;;;;;5076245;28;20124;-64
2024/01/04 05:21:02;;;;;;;1.75;0.10;;;4.40;99.90;;;;;;5093006;28;20039;-64
2024/01/04 05:23:28;;;;;;;2.72;0.20;;;4.30;99.90;;;;;;5092746;28;20083;-64
2024/01/04 05:25:54;;;;;;;2.75;0.13;;;4.10;99.90;;;;;;5076293;28;20527;-65
2024/01/04 05:28:20;;;;;;;2.05;0.20;;;4.30;99.90;;;;;;5059129;28;20473;-64
2024/01/04 05:30:46;;;;;;;2.35;0.15;;;4.00;99.90;;;;;;5075858;28;20227;-64
2024/01/04 05:33:11;;;;;;;1.20;0.10;;;4.10;99.90;;;;;;5092465;28;20088;-63
2024/01/04 05:35:38;;;;;;;3.88;0.17;;;4.10;99.90;;;;;;5092869;28;20075;-64
2024/01/04 05:38:04;;;;;;;3.33;0.10;;;4.00;99.90;;;;;;5059035;28;20586;-63
2024/01/04 05:40:30;;;;;;;1.80;0.20;;;3.90;99.90;;;;;;5075473;28;20039;-63
2024/01/04 05:42:58;;;;;;;3.75;0.17;;;4.30;99.90;;;;;;5092544;28;20130;-65
2024/01/04 05:45:24;;;;;;;1.88;0.10;;;4.30;99.90;;;;;;5092325;28;20073;-66
2024/01/04 05:47:50;;;;;;;3.22;0.10;;;4.00;99.90;;;;;;5075907;28;20051;-63
2024/01/04 05:50:16;;;;;;;3.90;0.10;;;4.00;99.90;;;;;;5093034;28;20047;-65
2024/01/04 05:52:42;;;;;;;4.03;0.17;;;4.20;99.90;;;;;;5058579;28;20047;-64
2024/01/04 05:55:08;;;;;;;2.95;0.20;;;4.20;99.90;;;;;;5075149;28;20051;-64
2024/01/04 05:57:34;;;;;;;4.05;0.10;;;4.00;99.90;;;;;;5092052;28;20492;-64
2024/01/04 06:00:00;;;;;;;2.85;0.20;;;4.00;99.90;;;;;;5092029;28;20406;-64
2024/01/04 06:02:27;;;;;;;2.42;0.10;;;4.20;99.90;;;;;;5075626;28;20028;-64
2024/01/04 06:04:54;;;;;;;2.53;0.10;;;4.10;99.90;;;;;;5076361;28;20035;-64
2024/01/04 06:07:21;;;;;;;1.98;0.10;;;3.90;99.90;;;;;;5058611;28;20040;-63
2024/01/04 06:09:47;;;;;;;3.00;0.40;;;4.10;99.90;;;;;;5058178;28;20497;-64
2024/01/04 06:12:12;;;;;;;5.00;0.40;;;3.90;99.90;;;;;;5057826;28;20040;-65
2024/01/04 06:14:38;;;;;;;2.35;0.20;;;4.00;99.90;;;;;;5091965;28;20529;-63
2024/01/04 06:17:04;;;;;;;1.70;0.20;;;4.00;99.90;;;;;;5092210;28;20142;-63
2024/01/04 06:19:30;;;;;;;2.55;0.70;;;3.90;99.90;;;;;;5091607;28;20039;-64
2024/01/04 06:21:56;;;;;;;2.90;0.20;;;4.10;99.90;;;;;;5091697;28;20070;-63
2024/01/04 06:24:23;;;;;;;2.47;0.20;;;4.00;99.90;;;;;;5091053;28;20594;-63
2024/01/04 06:26:49;;;;;;;2.50;0.20;;;3.90;99.90;;;;;;5091326;28;20043;-64
2024/01/04 06:29:18;;;;;;;2.40;0.15;;;4.00;99.90;;;;;;5074201;28;20205;-64
2024/01/04 06:31:44;;;;;;;5.78;0.20;;;3.90;99.90;;;;;;5092237;28;20475;-64
2024/01/04 06:34:10;;;;;;;3.78;0.20;;;3.80;99.90;;;;;;5091517;28;20100;-63
2024/01/04 06:36:36;;;;;;;2.58;0.10;;;3.60;99.90;;;;;;5125573;27;20036;-64
2024/01/04 06:39:03;;;;;;;1.75;0.20;;;3.60;99.90;;;;;;5091384;28;20039;-64
2024/01/04 06:41:30;;;;;;;1.95;0.32;;;3.40;99.90;;;;;;5075139;28;20042;-64
2024/01/04 06:43:59;;;;;;;3.17;0.20;;;3.70;99.90;;;;;;5058947;28;20048;-64
2024/01/04 06:46:25;;;;;;;2.70;0.20;;;3.70;99.90;;;;;;5092714;28;20078;-66
2024/01/04 06:48:51;;;;;;;2.13;0.20;;;3.60;99.90;;;;;;5075408;28;20039;-64
2024/01/04 06:51:17;;;;;;;1.70;0.20;;;3.80;99.90;;;;;;5075435;28;20055;-64
2024/01/04 06:53:42;;;;;;;3.35;0.25;;;3.50;99.90;;;;;;5076733;28;20039;-64
2024/01/04 06:56:10;;;;;;;6.03;0.20;;;3.70;99.90;;;;;;5076987;28;20176;-64
2024/01/04 06:58:36;;;;;;;5.18;0.28;;;3.60;99.90;;;;;;5075005;28;20080;-65
2024/01/04 07:01:01;;;;;;;3.67;0.30;;;3.60;99.90;;;;;;5092550;28;20126;-64
2024/01/04 07:03:29;;;;;;;5.07;0.40;;;3.80;99.90;;;;;;5075258;28;20044;-63
2024/01/04 07:05:55;;;;;;;2.92;0.30;;;3.70;99.90;;;;;;5092524;28;20537;-63
2024/01/04 07:08:20;;;;;;;8.13;1.10;;;3.60;99.90;;;;;;5075492;28;20135;-64
2024/01/04 07:10:46;;;;;;;6.82;0.93;;;3.60;99.90;;;;;;5092620;28;20092;-64
2024/01/04 07:13:12;;;;;;;7.57;1.30;;;3.40;99.90;;;;;;5091889;28;20035;-63
2024/01/04 07:15:38;;;;;;;5.18;0.77;;;3.30;99.90;;;;;;5075876;28;20506;-64
2024/01/04 07:18:04;;;;;;;4.80;0.80;;;3.30;99.90;;;;;;5075897;28;20117;-64
2024/01/04 07:20:31;;;;;;;4.22;0.60;;;3.30;99.90;;;;;;5075193;28;20127;-64
2024/01/04 07:22:58;;;;;;;2.97;0.40;;;3.20;99.90;;;;;;5091808;28;20132;-64
2024/01/04 07:25:23;;;;;;;3.90;0.30;;;3.40;99.90;;;;;;5096815;27;20528;-64
2024/01/04 07:27:49;;;;;;;4.13;0.70;;;3.20;99.90;;;;;;5091203;28;20156;-64
2024/01/04 07:30:15;;;;;;;3.00;0.80;;;3.20;99.90;;;;;;5091424;28;20596;-65
2024/01/04 07:32:41;;;;;;;4.82;0.70;;;3.50;99.90;;;;;;5090563;28;20043;-65
2024/01/04 07:35:09;;;;;;;4.45;0.50;;;3.30;99.90;;;;;;5093201;27;20110;-65
2024/01/04 07:37:34;;;;;;;4.13;0.50;;;3.40;99.90;;;;;;5073914;28;20668;-65
2024/01/04 07:40:00;;;;;;;1.70;0.30;;;3.40;99.90;;;;;;5073742;28;20506;-64
2024/01/04 07:42:26;;;;;;;3.55;0.30;;;3.40;99.90;;;;;;5090464;28;20684;-65
2024/01/04 07:44:52;;;;;;;2.20;0.30;;;3.30;99.90;;;;;;5074069;28;20609;-64
2024/01/04 07:47:18;;;;;;;4.05;0.30;;;3.40;99.90;;;;;;5090101;28;20073;-66
2024/01/04 07:49:45;;;;;;;5.07;0.60;;;3.10;99.90;;;;;;5091835;28;20040;-65
2024/01/04 07:52:10;;;;;;;4.90;0.60;;;3.20;99.90;;;;;;5072809;28;20054;-64
2024/01/04 07:54:36;;;;;;;4.72;0.95;;;3.30;99.90;;;;;;5078145;28;20035;-64
2024/01/04 07:57:02;;;;;;;5.75;1.15;;;3.50;99.90;;;;;;5073509;28;20047;-63
2024/01/04 07:59:28;;;;;;;3.47;1.00;;;3.20;99.90;;;;;;5090967;28;20279;-64
2024/01/04 08:01:54;;;;;;;3.83;1.13;;;3.10;99.90;;;;;;5090185;28;20290;-64
2024/01/04 08:04:21;;;;;;;2.67;0.40;;;3.40;99.90;;;;;;5073068;28;20126;-64
2024/01/04 08:06:53;;;;;;;1.88;0.20;;;3.10;99.90;;;;;;5073709;28;20516;-63
2024/01/04 08:09:19;;;;;;;3.10;0.10;;;3.40;99.90;;;;;;5090914;28;20048;-63
2024/01/04 08:11:46;;;;;;;1.77;0.20;;;3.50;99.90;;;;;;5091712;28;20540;-63
2024/01/04 08:14:11;;;;;;;3.92;0.25;;;3.50;99.90;;;;;;5075624;28;20044;-63
2024/01/04 08:16:37;;;;;;;3.53;0.20;;;3.50;99.90;;;;;;5073706;28;20040;-66
2024/01/04 08:19:03;;;;;;;3.22;0.38;;;3.30;99.90;;;;;;5089795;28;20123;-63
2024/01/04 08:21:29;;;;;;;4.13;1.20;;;3.30;99.90;;;;;;5063911;28;20066;-63
2024/01/04 08:23:55;;;;;;;6.13;1.08;;;3.40;99.90;;;;;;5089983;28;20649;-64
2024/01/04 08:26:21;;;;;;;3.80;0.73;;;3.40;99.90;;;;;;5090792;28;20043;-63
2024/01/04 08:28:47;;;;;;;7.13;1.05;;;3.40;99.90;;;;;;5074135;28;20058;-64
2024/01/04 08:31:13;;;;;;;2.78;0.95;;;3.00;99.90;;;;;;5091272;28;20035;-63
2024/01/04 08:33:38;;;;;;;7.05;1.50;;;3.40;99.90;;;;;;5074079;28;20039;-66
2024/01/04 08:36:04;;;;;;;5.80;0.75;;;3.20;99.90;;;;;;5087701;28;20828;-63
2024/01/04 08:38:30;;;;;;;5.88;1.40;;;3.10;99.90;;;;;;5088090;28;20047;-64
2024/01/04 08:40:56;;;;;;;5.20;0.80;;;3.20;99.90;;;;;;5089469;28;20354;-64
2024/01/04 08:43:22;;;;;;;2.55;0.40;;;3.20;99.90;;;;;;5090411;28;20516;-64
2024/01/04 08:45:49;;;;;;;5.25;0.68;;;3.20;99.90;;;;;;5089679;28;20043;-63
2024/01/04 08:48:15;;;;;;;2.63;0.60;;;3.40;99.90;;;;;;5057632;28;20050;-64
2024/01/04 08:50:41;;;;;;;5.07;0.85;;;3.50;99.90;;;;;;5093751;28;20441;-64
2024/01/04 08:53:07;;;;;;;4.30;1.02;;;3.90;99.90;;;;;;5093472;28;20075;-63
2024/01/04 08:55:33;;;;;;;5.10;1.23;;;3.50;99.90;;;;;;5093753;28;20331;-64
2024/01/04 08:57:59;;;;;;;4.20;0.65;;;3.50;99.90;;;;;;5076998;28;20035;-64
2024/01/04 09:00:25;;;;;;;4.13;0.50;;;3.80;99.90;;;;;;5094089;27;20067;-63
2024/01/04 09:02:51;;;;;;;4.93;0.65;;;3.40;99.90;;;;;;5083150;28;20058;-63
2024/01/04 09:05:17;;;;;;;7.18;0.40;;;3.40;99.90;;;;;;5093321;28;20091;-64
2024/01/04 09:07:43;;;;;;;3.03;0.40;;;3.80;99.90;;;;;;5092589;28;20571;-63
2024/01/04 09:10:09;;;;;;;5.22;0.60;;;3.40;99.90;;;;;;5093011;28;20085;-64
2024/01/04 09:12:35;;;;;;;2.65;0.28;;;3.50;99.90;;;;;;5093536;28;20040;-64
2024/01/04 09:15:01;;;;;;;1.80;0.35;;;3.60;99.90;;;;;;5094083;28;20255;-63
2024/01/04 09:17:26;;;;;;;1.88;0.32;;;3.80;99.90;;;;;;5075770;28;20071;-64
2024/01/04 09:19:52;;;;;;;2.38;0.40;;;3.40;99.90;;;;;;5064265;28;20043;-63
2024/01/04 09:22:18;;;;;;;3.50;0.57;;;3.40;99.90;;;;;;5075828;28;20071;-64
2024/01/04 09:24:44;;;;;;;3.75;0.30;;;3.60;99.90;;;;;;5091907;28;20044;-63
2024/01/04 09:27:12;;;;;;;2.78;0.45;;;3.50;99.90;;;;;;5092986;28;20056;-64
2024/01/04 09:29:38;;;;;;;5.43;0.60;;;3.90;99.90;;;;;;5076114;28;20043;-64
2024/01/04 09:32:04;;;;;;;2.38;0.40;;;3.90;99.90;;;;;;5076685;28;20051;-64
2024/01/04 09:34:30;;;;;;;3.60;0.43;;;4.10;99.90;;;;;;5093010;28;20040;-64
2024/01/04 09:36:56;;;;;;;1.63;0.40;;;3.70;99.90;;;;;;5081170;28;20047;-64
2024/01/04 09:39:22;;;;;;;3.47;0.35;;;4.00;99.90;;;;;;5074743;28;20042;-64
2024/01/04 09:41:52;;;;;;;3.83;0.30;;;4.10;99.90;;;;;;5075679;28;20517;-64
2024/01/04 09:44:19;;;;;;;4.25;0.38;;;4.30;99.90;;;;;;5095651;27;20046;-66
2024/01/04 09:46:52;;;;;;;5.70;0.20;;;4.20;99.90;;;;;;5057335;28;20069;-64
2024/01/04 09:49:18;;;;;;;2.95;0.20;;;4.30;99.90;;;;;;5075020;28;20048;-64
2024/01/04 09:51:44;;;;;;;5.60;0.20;;;4.40;99.90;;;;;;5091895;28;20047;-66
2024/01/04 09:54:11;;;;;;;4.32;0.20;;;4.30;99.90;;;;;;5092334;28;20075;-64
2024/01/04 09:56:43;;;;;;;2.38;0.20;;;4.70;99.90;;;;;;5076243;28;20619;-64
2024/01/04 09:59:12;;;;;;;1.60;0.15;;;4.80;99.90;;;;;;5091059;28;20128;-64
2024/01/04 10:01:38;;;;;;;1.70;0.13;;;4.90;99.90;;;;;;5075101;28;20532;-64
2024/01/04 10:04:16;;;;;;;1.80;0.32;;;5.40;99.90;;;;;;5092284;28;20086;-66
2024/01/04 10:06:43;;;;;;;5.60;0.20;;;5.40;99.90;;;;;;5091345;28;20138;-67
2024/01/04 10:09:24;;;;;;;1.80;0.30;;;5.40;99.90;;;;;;5091941;28;20523;-64
2024/01/04 10:12:08;;;;;;;2.03;0.20;;;5.30;99.90;;;;;;5092093;28;20121;-65
2024/01/04 10:14:34;;;;;;;2.50;0.40;;;5.10;99.90;;;;;;5092358;28;20266;-65
2024/01/04 10:17:00;;;;;;;2.97;0.20;;;5.20;99.90;;;;;;5093407;28;20035;-65
2024/01/04 10:19:27;;;;;;;1.42;0.17;;;5.60;99.90;;;;;;5092071;28;20047;-64
2024/01/04 10:22:01;;;;;;;2.30;0.10;;;6.60;99.90;;;;;;5058119;28;20046;-64
2024/01/04 10:24:29;;;;;;;1.83;0.22;;;7.50;99.90;;;;;;5092808;28;20078;-65
2024/01/04 10:26:59;;;;;;;1.63;0.20;;;8.30;99.90;;;;;;5091637;28;20075;-65
2024/01/04 10:29:29;;;;;;;1.65;0.20;;;8.90;99.90;;;;;;5090365;28;20048;-65
2024/01/04 10:32:09;;;;;;;1.67;0.10;;;9.30;99.90;;;;;;5073227;28;20055;-65
2024/01/04 10:34:37;;;;;;;1.77;0.20;;;9.70;99.90;;;;;;5082752;28;20035;-65
2024/01/04 10:37:08;;;;;;;1.42;0.20;;;9.70;99.90;;;;;;5089387;28;20400;-65
2024/01/04 10:39:35;;;;;;;4.72;0.22;;;9.90;99.90;;;;;;5105176;27;20176;-65
2024/01/04 10:42:01;;;;;;;2.85;0.20;;;9.90;99.90;;;;;;5071613;28;20142;-65
2024/01/04 10:44:33;;;;;;;2.75;0.20;;;9.10;99.90;;;;;;5090904;28;20239;-65
2024/01/04 10:47:02;;;;;;;2.72;0.20;;;8.40;99.90;;;;;;5074060;28;20517;-65
2024/01/04 10:49:28;;;;;;;3.55;0.30;;;7.70;99.90;;;;;;5094335;27;20919;-66
2024/01/04 10:51:58;;;;;;;1.85;0.10;;;7.00;99.90;;;;;;5124096;27;20480;-64
2024/01/04 10:54:32;;;;;;;1.95;0.20;;;6.70;99.90;;;;;;5090232;28;20197;-64
2024/01/04 10:57:02;;;;;;;3.33;0.20;;;6.80;99.90;;;;;;5074171;28;20043;-64
2024/01/04 10:59:29;;;;;;;2.25;0.20;;;7.40;99.90;;;;;;5074619;28;20051;-66
2024/01/04 11:02:01;;;;;;;3.35;0.20;;;7.90;99.90;;;;;;5043167;28;20470;-66
2024/01/04 11:04:28;;;;;;;2.78;0.22;;;8.60;99.90;;;;;;5091047;28;20541;-65
2024/01/04 11:06:55;;;;;;;2.63;0.30;;;9.10;99.90;;;;;;5072109;28;20046;-66
2024/01/04 11:09:25;;;;;;;2.50;0.30;;;9.60;99.90;;;;;;5094009;27;20036;-65
2024/01/04 11:11:52;;;;;;;3.28;0.30;;;10.20;99.90;;;;;;5073296;28;20043;-65
2024/01/04 11:14:23;;;;;;;3.72;0.32;;;10.30;99.90;;;;;;5076833;28;20304;-65
2024/01/04 11:17:01;;;;;;;2.90;0.40;;;10.20;99.90;;;;;;5090202;28;20086;-65
2024/01/04 11:19:35;;;;;;;3.63;0.77;;;10.20;99.90;;;;;;5090399;28;20073;-64
2024/01/04 11:22:43;;;;;;;3.42;0.20;;;10.00;99.90;;;;;;5079864;28;20042;-66
2024/01/04 11:26:04;;;;;;;4.65;0.20;;;8.80;99.90;;;;;;5090084;28;20096;-66
2024/01/04 11:28:32;;;;;;;4.72;0.20;;;7.50;1.00;;;;;;4996901;28;20557;-65
2024/01/04 11:31:00;;;;;;;3.95;0.20;;;6.90;99.90;;;;;;5057794;28;20140;-64
2024/01/04 11:33:27;;;;;;;3.35;0.20;;;6.50;99.90;;;;;;5076933;28;21066;-65
2024/01/04 11:35:53;;;;;;;3.80;0.30;;;6.20;99.90;;;;;;5073415;28;20061;-64
2024/01/04 11:38:24;;;;;;;3.58;0.40;;;6.10;99.90;;;;;;5089656;28;20039;-64
2024/01/04 11:40:50;;;;;;;3.75;0.52;;;6.10;99.90;;;;;;5089214;28;20044;-67
2024/01/04 11:43:17;;;;;;;2.63;0.20;;;6.40;99.90;;;;;;5123108;27;20031;-64
2024/01/04 11:45:46;;;;;;;1.98;0.20;;;7.00;99.90;;;;;;5055465;28;20283;-64
2024/01/04 11:48:12;;;;;;;1.30;0.20;;;7.30;99.90;;;;;;5089206;28;20044;-65
2024/01/04 11:50:50;;;;;;;6.53;1.05;;;7.00;99.90;;;;;;5088246;28;20066;-64
2024/01/04 11:53:18;;;;;;;2.75;0.30;;;6.90;99.90;;;;;;5071809;28;20116;-64
2024/01/04 11:55:44;;;;;;;4.38;0.40;;;6.70;99.90;;;;;;5089345;28;20683;-64
2024/01/04 11:58:28;;;;;;;2.40;0.30;;;6.50;99.90;;;;;;5088089;28;20105;-64
2024/01/04 12:00:56;;;;;;;;;;;6.10;99.90;;;;;;5089289;28;20346;-64
2024/01/04 12:03:27;;;;;;;2.42;0.20;;;5.90;99.90;;;;;;5122138;27;19926;-64
2024/01/04 12:05:55;;;;;;;2.17;0.30;;;6.00;99.90;;;;;;5090082;28;20078;-66
2024/01/04 12:08:28;;;;;;;1.05;0.20;;;5.80;99.90;;;;;;5089406;28;20039;-64
2024/01/04 12:10:55;;;;;;;1.85;0.20;;;6.00;99.90;;;;;;5071963;28;20050;-64
2024/01/04 12:13:21;;;;;;;3.63;0.30;;;6.30;99.90;;;;;;5070685;28;20156;-64
2024/01/04 12:15:47;;;;;;;2.65;0.20;;;6.60;99.90;;;;;;5070712;28;20039;-65
2024/01/04 12:18:13;;;;;;;3.80;0.30;;;7.20;99.90;;;;;;5054757;28;20109;-64
2024/01/04 12:20:39;;;;;;;3.88;0.30;;;8.10;99.90;;;;;;5071403;28;20679;-68
2024/01/04 12:23:08;;;;;;;4.07;0.20;;;8.10;99.90;;;;;;5053120;28;20114;-65
2024/01/04 12:25:38;;;;;;;4.60;0.30;;;7.90;99.90;;;;;;5071344;28;20074;-65
2024/01/04 12:28:06;;;;;;;2.78;0.28;;;7.50;99.90;;;;;;5087635;28;20331;-64
2024/01/04 12:30:32;;;;;;;1.30;0.20;;;7.20;99.90;;;;;;5088531;28;20658;-65
2024/01/04 12:33:00;;;;;;;2.45;0.20;;;7.10;99.90;;;;;;5074627;28;20028;-64
2024/01/04 12:35:27;;;;;;;1.92;0.20;;;6.80;99.90;;;;;;5070555;28;20036;-65
2024/01/04 12:38:03;;;;;;;2.17;0.20;;;6.60;99.90;;;;;;5053462;28;20314;-65
2024/01/04 12:40:40;;;;;;;3.10;0.35;;;6.20;99.90;;;;;;5087786;28;20035;-65
2024/01/04 12:43:10;;;;;;;2.53;0.20;;;6.00;99.90;;;;;;5088214;28;20078;-65
2024/01/04 12:45:36;;;;;;;2.78;0.20;;;5.80;99.90;;;;;;5087878;28;20828;-65
2024/01/04 12:48:04;;;;;;;4.38;0.20;;;5.90;99.90;;;;;;5087142;28;20242;-65
2024/01/04 12:50:30;;;;;;;21.00;13.63;;;5.90;99.90;;;;;;5087802;28;20131;-65
2024/01/04 12:52:56;;;;;;;12.32;8.55;;;6.00;99.90;;;;;;5087947;28;20500;-65
2024/01/04 12:55:22;;;;;;;4.47;0.77;;;5.90;99.90;;;;;;5088766;28;20048;-65
2024/01/04 12:57:48;;;;;;;2.40;0.30;;;5.90;99.90;;;;;;5087157;28;20100;-65